PWSweather.com
Personal Weather Stations
Station Observations
KWABLAIN13
Ptl Weather, Blaine, WA

Ptl WeatherBlaine, WA

Lat: 48.997393, Lon: -122.748614

Elevation: 57

Station Type: Davis Advantage Pro 2

http://www.ptlnet.net

High Low Average
Temperature 49.7°F9.8°C 41.8°F5.4°C 46.1°F7.8°C
Dew Point 47.0°F8.3°C 40.0°F4.4°C 43.0°F6.1°C
Winds 24.0 mph 38.6 kmh Calm Calm 9.0 mph S14.5 kmh S
Wind Gusts 33.0 mph53.1 kmh 3.0 mph4.8 kmh 16.0 mph25.7 kmh
Humidity 95% 81% 89%
Pressure 30.08 in1018.6 mb 29.51 in999.3 mb -
Precipitation 0.00 in0.0 mm - -
Hour Temp Dew Point Humidity Winds Wind Gusts Pressure Precip Precip Rate Daily Precip Total
12:05 AM 41.9°F5.5°C 40.0°F4.4°C 93% Calm Calm 6.0 mph9.7 kmh 30.08 in1018.6 mb 0.03 in0.8 mm 0.36 in9.1 mm 0.03 in0.8 mm
12:10 AM 41.9°F5.5°C 40.0°F4.4°C 93% 2.0 mph E3.2 kmh E 6.0 mph9.7 kmh 30.08 in1018.6 mb 0.03 in0.8 mm 0.00 in0.0 mm 0.03 in0.8 mm
12:25 AM 41.8°F5.4°C 40.2°F4.6°C 94% 2.0 mph NE3.2 kmh NE 5.0 mph8.0 kmh 30.07 in1018.3 mb 0.04 in1.0 mm 0.04 in1.0 mm 0.04 in1.0 mm
12:30 AM 41.8°F5.4°C 40.2°F4.6°C 94% 1.0 mph NE1.6 kmh NE 5.0 mph8.0 kmh 30.07 in1018.3 mb 0.04 in1.0 mm 0.00 in0.0 mm 0.04 in1.0 mm
12:45 AM 42.0°F5.6°C 40.7°F4.8°C 95% 3.0 mph E4.8 kmh E 6.0 mph9.7 kmh 30.05 in1017.6 mb 0.03 in0.8 mm 0.00 in0.0 mm 0.04 in1.0 mm
12:50 AM 42.2°F5.7°C 40.9°F4.9°C 95% 2.0 mph E3.2 kmh E 6.0 mph9.7 kmh 30.05 in1017.6 mb 0.03 in0.8 mm 0.00 in0.0 mm 0.04 in1.0 mm
01:05 AM 42.8°F6.0°C 41.5°F5.3°C 95% 7.0 mph ESE11.3 kmh ESE 8.0 mph12.9 kmh 30.03 in1016.9 mb 0.02 in0.5 mm 0.00 in0.0 mm 0.04 in1.0 mm
01:10 AM 43.1°F6.2°C 41.5°F5.3°C 94% 5.0 mph SE8.0 kmh SE 10.0 mph16.1 kmh 30.03 in1016.9 mb 0.02 in0.5 mm 0.00 in0.0 mm 0.04 in1.0 mm
01:25 AM 43.8°F6.6°C 41.9°F5.5°C 93% 4.0 mph ESE6.4 kmh ESE 10.0 mph16.1 kmh 30.02 in1016.6 mb 0.02 in0.5 mm 0.00 in0.0 mm 0.04 in1.0 mm
01:30 AM 44.0°F6.7°C 41.8°F5.4°C 92% 7.0 mph E11.3 kmh E 10.0 mph16.1 kmh 30.02 in1016.6 mb 0.02 in0.5 mm 0.00 in0.0 mm 0.04 in1.0 mm
01:45 AM 44.2°F6.8°C 41.7°F5.4°C 91% 7.0 mph SE11.3 kmh SE 8.0 mph12.9 kmh 30.02 in1016.6 mb 0.01 in0.3 mm 0.00 in0.0 mm 0.04 in1.0 mm
01:50 AM 44.3°F6.8°C 41.8°F5.4°C 91% 7.0 mph SE11.3 kmh SE 8.0 mph12.9 kmh 30.01 in1016.3 mb 0.01 in0.3 mm 0.00 in0.0 mm 0.04 in1.0 mm
02:04 AM 44.7°F7.1°C 41.7°F5.4°C 89% 4.0 mph ESE6.4 kmh ESE 14.0 mph22.5 kmh 30.00 in1015.9 mb 0.01 in0.3 mm 0.00 in0.0 mm 0.04 in1.0 mm
02:10 AM 45.0°F7.2°C 42.0°F5.6°C 89% 5.0 mph S8.0 kmh S 15.0 mph24.1 kmh 30.00 in1015.9 mb 0.01 in0.3 mm 0.00 in0.0 mm 0.04 in1.0 mm
02:25 AM 45.6°F7.6°C 41.7°F5.4°C 86% 11.0 mph ESE17.7 kmh ESE 15.0 mph24.1 kmh 29.99 in1015.6 mb 0.01 in0.3 mm 0.00 in0.0 mm 0.04 in1.0 mm
02:30 AM 46.0°F7.8°C 41.8°F5.4°C 85% 10.0 mph SW16.1 kmh SW 20.0 mph32.2 kmh 29.99 in1015.6 mb 0.01 in0.3 mm 0.00 in0.0 mm 0.04 in1.0 mm
02:45 AM 46.6°F8.1°C 41.4°F5.2°C 82% 6.0 mph S9.7 kmh S 17.0 mph27.4 kmh 29.98 in1015.2 mb 0.00 in0.0 mm 0.00 in0.0 mm 0.04 in1.0 mm
02:50 AM 46.8°F8.2°C 41.6°F5.3°C 82% 10.0 mph SE16.1 kmh SE 19.0 mph30.6 kmh 29.98 in1015.2 mb 0.00 in0.0 mm 0.00 in0.0 mm 0.04 in1.0 mm
03:05 AM 46.7°F8.2°C 41.5°F5.3°C 82% 9.0 mph SE14.5 kmh SE 18.0 mph29.0 kmh 29.98 in1015.2 mb 0.00 in0.0 mm 0.00 in0.0 mm 0.04 in1.0 mm
03:09 AM 46.7°F8.2°C 41.5°F5.3°C 82% 4.0 mph SE6.4 kmh SE 21.0 mph33.8 kmh 29.97 in1014.9 mb 0.00 in0.0 mm 0.00 in0.0 mm 0.04 in1.0 mm
03:25 AM 46.4°F8.0°C 41.8°F5.4°C 84% 8.0 mph ESE12.9 kmh ESE 17.0 mph27.4 kmh 29.96 in1014.6 mb 0.00 in0.0 mm 0.00 in0.0 mm 0.04 in1.0 mm
03:30 AM 46.3°F7.9°C 41.7°F5.4°C 84% 8.0 mph SSE12.9 kmh SSE 17.0 mph27.4 kmh 29.96 in1014.6 mb 0.00 in0.0 mm 0.00 in0.0 mm 0.04 in1.0 mm
03:45 AM 46.1°F7.8°C 41.9°F5.5°C 85% 9.0 mph SSE14.5 kmh SSE 14.0 mph22.5 kmh 29.95 in1014.2 mb 0.01 in0.3 mm 0.04 in1.0 mm 0.05 in1.3 mm
03:50 AM 46.0°F7.8°C 41.8°F5.4°C 85% 10.0 mph S16.1 kmh S 18.0 mph29.0 kmh 29.95 in1014.2 mb 0.01 in0.3 mm 0.00 in0.0 mm 0.05 in1.3 mm
04:05 AM 45.8°F7.7°C 41.9°F5.5°C 86% 5.0 mph S8.0 kmh S 22.0 mph35.4 kmh 29.93 in1013.5 mb 0.01 in0.3 mm 0.00 in0.0 mm 0.05 in1.3 mm
04:10 AM 45.7°F7.6°C 41.8°F5.4°C 86% 5.0 mph S8.0 kmh S 22.0 mph35.4 kmh 29.93 in1013.5 mb 0.01 in0.3 mm 0.00 in0.0 mm 0.05 in1.3 mm
04:24 AM 45.8°F7.7°C 41.3°F5.2°C 84% 12.0 mph ESE19.3 kmh ESE 22.0 mph35.4 kmh 29.92 in1013.2 mb 0.01 in0.3 mm 0.00 in0.0 mm 0.05 in1.3 mm
04:30 AM 46.0°F7.8°C 41.4°F5.2°C 84% 22.0 mph SE35.4 kmh SE 25.0 mph40.2 kmh 29.91 in1012.9 mb 0.01 in0.3 mm 0.00 in0.0 mm 0.05 in1.3 mm
04:45 AM 45.8°F7.7°C 41.3°F5.2°C 84% 15.0 mph ESE24.1 kmh ESE 19.0 mph30.6 kmh 29.90 in1012.5 mb 0.01 in0.3 mm 0.00 in0.0 mm 0.05 in1.3 mm
04:50 AM 45.8°F7.7°C 41.3°F5.2°C 84% 10.0 mph SSE16.1 kmh SSE 23.0 mph37.0 kmh 29.90 in1012.5 mb 0.01 in0.3 mm 0.00 in0.0 mm 0.05 in1.3 mm
05:05 AM 45.7°F7.6°C 41.2°F5.1°C 84% 5.0 mph E8.0 kmh E 17.0 mph27.4 kmh 29.88 in1011.9 mb 0.00 in0.0 mm 0.00 in0.0 mm 0.05 in1.3 mm
05:09 AM 45.5°F7.5°C 40.7°F4.8°C 83% 10.0 mph SSE16.1 kmh SSE 18.0 mph29.0 kmh 29.88 in1011.9 mb 0.00 in0.0 mm 0.00 in0.0 mm 0.05 in1.3 mm
05:25 AM 45.7°F7.6°C 41.2°F5.1°C 84% 12.0 mph SSW19.3 kmh SSW 21.0 mph33.8 kmh 29.88 in1011.9 mb 0.00 in0.0 mm 0.00 in0.0 mm 0.05 in1.3 mm
05:29 AM 45.6°F7.6°C 41.1°F5.1°C 84% 15.0 mph SE24.1 kmh SE 21.0 mph33.8 kmh 29.87 in1011.5 mb 0.00 in0.0 mm 0.00 in0.0 mm 0.05 in1.3 mm
05:45 AM 45.6°F7.6°C 41.1°F5.1°C 84% 11.0 mph SE17.7 kmh SE 28.0 mph45.1 kmh 29.86 in1011.2 mb 0.00 in0.0 mm 0.00 in0.0 mm 0.05 in1.3 mm
05:50 AM 45.5°F7.5°C 41.0°F5.0°C 84% 17.0 mph SE27.4 kmh SE 30.0 mph48.3 kmh 29.87 in1011.5 mb 0.00 in0.0 mm 0.00 in0.0 mm 0.05 in1.3 mm
06:05 AM 45.6°F7.6°C 41.1°F5.1°C 84% 8.0 mph SSE12.9 kmh SSE 21.0 mph33.8 kmh 29.86 in1011.2 mb 0.00 in0.0 mm 0.00 in0.0 mm 0.05 in1.3 mm
06:09 AM 45.6°F7.6°C 41.1°F5.1°C 84% 21.0 mph S33.8 kmh S 22.0 mph35.4 kmh 29.85 in1010.8 mb 0.00 in0.0 mm 0.00 in0.0 mm 0.05 in1.3 mm
06:25 AM 45.4°F7.4°C 41.2°F5.1°C 85% 18.0 mph SE29.0 kmh SE 22.0 mph35.4 kmh 29.85 in1010.8 mb 0.00 in0.0 mm 0.00 in0.0 mm 0.05 in1.3 mm
06:30 AM 45.4°F7.4°C 40.9°F4.9°C 84% 14.0 mph SE22.5 kmh SE 14.0 mph22.5 kmh 29.84 in1010.5 mb 0.00 in0.0 mm 0.00 in0.0 mm 0.05 in1.3 mm
06:45 AM 45.7°F7.6°C 41.2°F5.1°C 84% 12.0 mph SE19.3 kmh SE 19.0 mph30.6 kmh 29.83 in1010.2 mb 0.00 in0.0 mm 0.00 in0.0 mm 0.05 in1.3 mm
06:50 AM 45.8°F7.7°C 41.3°F5.2°C 84% 7.0 mph SE11.3 kmh SE 23.0 mph37.0 kmh 29.82 in1009.8 mb 0.01 in0.3 mm 0.12 in3.0 mm 0.06 in1.5 mm
07:05 AM 45.9°F7.7°C 41.4°F5.2°C 84% 9.0 mph SSE14.5 kmh SSE 25.0 mph40.2 kmh 29.82 in1009.8 mb 0.01 in0.3 mm 0.00 in0.0 mm 0.06 in1.5 mm
07:10 AM 46.0°F7.8°C 41.1°F5.1°C 83% 4.0 mph SE6.4 kmh SE 25.0 mph40.2 kmh 29.82 in1009.8 mb 0.01 in0.3 mm 0.00 in0.0 mm 0.06 in1.5 mm
07:25 AM 46.0°F7.8°C 41.8°F5.4°C 85% 11.0 mph SE17.7 kmh SE 20.0 mph32.2 kmh 29.81 in1009.5 mb 0.01 in0.3 mm 0.00 in0.0 mm 0.06 in1.5 mm
07:29 AM 45.9°F7.7°C 42.0°F5.6°C 86% 14.0 mph SE22.5 kmh SE 20.0 mph32.2 kmh 29.81 in1009.5 mb 0.02 in0.5 mm 0.15 in3.8 mm 0.07 in1.8 mm
07:45 AM 45.5°F7.5°C 42.2°F5.7°C 88% 5.0 mph SE8.0 kmh SE 24.0 mph38.6 kmh 29.81 in1009.5 mb 0.04 in1.0 mm 0.08 in2.0 mm 0.09 in2.3 mm
07:50 AM 45.4°F7.4°C 42.4°F5.8°C 89% 2.0 mph S3.2 kmh S 3.0 mph4.8 kmh 29.80 in1009.1 mb 0.03 in0.8 mm 0.00 in0.0 mm 0.09 in2.3 mm
08:04 AM 45.1°F7.3°C 42.4°F5.8°C 90% 15.0 mph SE24.1 kmh SE 18.0 mph29.0 kmh 29.79 in1008.8 mb 0.06 in1.5 mm 0.04 in1.0 mm 0.12 in3.0 mm
08:10 AM 45.1°F7.3°C 42.6°F5.9°C 91% 10.0 mph SSE16.1 kmh SSE 13.0 mph20.9 kmh 29.79 in1008.8 mb 0.07 in1.8 mm 0.10 in2.5 mm 0.13 in3.3 mm
08:25 AM 45.1°F7.3°C 42.9°F6.1°C 92% 12.0 mph SE19.3 kmh SE 17.0 mph27.4 kmh 29.77 in1008.1 mb 0.08 in2.0 mm 0.04 in1.0 mm 0.14 in3.6 mm
08:29 AM 45.1°F7.3°C 42.9°F6.1°C 92% 8.0 mph SE12.9 kmh SE 22.0 mph35.4 kmh 29.76 in1007.8 mb 0.09 in2.3 mm 0.15 in3.8 mm 0.15 in3.8 mm
08:45 AM 45.2°F7.3°C 43.0°F6.1°C 92% 13.0 mph SE20.9 kmh SE 22.0 mph35.4 kmh 29.74 in1007.1 mb 0.07 in1.8 mm 0.00 in0.0 mm 0.15 in3.8 mm
08:50 AM 45.3°F7.4°C 43.1°F6.2°C 92% 11.0 mph SSE17.7 kmh SSE 11.0 mph17.7 kmh 29.74 in1007.1 mb 0.06 in1.5 mm 0.00 in0.0 mm 0.15 in3.8 mm
09:05 AM 45.5°F7.5°C 43.3°F6.3°C 92% 15.0 mph SE24.1 kmh SE 19.0 mph30.6 kmh 29.73 in1006.8 mb 0.04 in1.0 mm 0.00 in0.0 mm 0.15 in3.8 mm
09:09 AM 45.5°F7.5°C 43.3°F6.3°C 92% 9.0 mph SE14.5 kmh SE 19.0 mph30.6 kmh 29.73 in1006.8 mb 0.05 in1.3 mm 0.15 in3.8 mm 0.16 in4.1 mm
09:24 AM 45.8°F7.7°C 43.6°F6.4°C 92% 24.0 mph SE38.6 kmh SE 33.0 mph53.1 kmh 29.72 in1006.4 mb 0.02 in0.5 mm 0.00 in0.0 mm 0.16 in4.1 mm
09:29 AM 45.9°F7.7°C 43.4°F6.3°C 91% 7.0 mph SSE11.3 kmh SSE 33.0 mph53.1 kmh 29.72 in1006.4 mb 0.02 in0.5 mm 0.00 in0.0 mm 0.16 in4.1 mm
09:44 AM 46.0°F7.8°C 43.8°F6.6°C 92% 10.0 mph SSE16.1 kmh SSE 21.0 mph33.8 kmh 29.70 in1005.8 mb 0.02 in0.5 mm 0.00 in0.0 mm 0.16 in4.1 mm
09:50 AM 46.0°F7.8°C 43.8°F6.6°C 92% 23.0 mph S37.0 kmh S 26.0 mph41.8 kmh 29.70 in1005.8 mb 0.02 in0.5 mm 0.00 in0.0 mm 0.16 in4.1 mm
10:05 AM 46.0°F7.8°C 43.8°F6.6°C 92% 6.0 mph SE9.7 kmh SE 21.0 mph33.8 kmh 29.69 in1005.4 mb 0.03 in0.8 mm 0.01 in0.3 mm 0.17 in4.3 mm
10:10 AM 46.0°F7.8°C 43.8°F6.6°C 92% 9.0 mph SSE14.5 kmh SSE 23.0 mph37.0 kmh 29.69 in1005.4 mb 0.03 in0.8 mm 0.00 in0.0 mm 0.17 in4.3 mm
10:25 AM 46.0°F7.8°C 43.8°F6.6°C 92% 10.0 mph SE16.1 kmh SE 24.0 mph38.6 kmh 29.68 in1005.1 mb 0.03 in0.8 mm 0.00 in0.0 mm 0.17 in4.3 mm
10:30 AM 46.0°F7.8°C 44.1°F6.7°C 93% 11.0 mph SE17.7 kmh SE 24.0 mph38.6 kmh 29.67 in1004.7 mb 0.04 in1.0 mm 0.12 in3.0 mm 0.18 in4.6 mm
10:45 AM 46.0°F7.8°C 44.1°F6.7°C 93% 10.0 mph SE16.1 kmh SE 20.0 mph32.2 kmh 29.66 in1004.4 mb 0.04 in1.0 mm 0.00 in0.0 mm 0.18 in4.6 mm
10:50 AM 46.0°F7.8°C 44.1°F6.7°C 93% 8.0 mph SE12.9 kmh SE 8.0 mph12.9 kmh 29.65 in1004.1 mb 0.04 in1.0 mm 0.00 in0.0 mm 0.18 in4.6 mm
11:04 AM 46.1°F7.8°C 44.2°F6.8°C 93% 10.0 mph S16.1 kmh S 21.0 mph33.8 kmh 29.64 in1003.7 mb 0.04 in1.0 mm 0.00 in0.0 mm 0.18 in4.6 mm
11:09 AM 46.0°F7.8°C 44.1°F6.7°C 93% 8.0 mph SSE12.9 kmh SSE 25.0 mph40.2 kmh 29.63 in1003.4 mb 0.04 in1.0 mm 0.00 in0.0 mm 0.18 in4.6 mm
11:25 AM 46.1°F7.8°C 44.2°F6.8°C 93% 8.0 mph S12.9 kmh S 21.0 mph33.8 kmh 29.62 in1003.0 mb 0.04 in1.0 mm 0.00 in0.0 mm 0.18 in4.6 mm
11:30 AM 46.1°F7.8°C 44.2°F6.8°C 93% 14.0 mph S22.5 kmh S 21.0 mph33.8 kmh 29.61 in1002.7 mb 0.04 in1.0 mm 0.00 in0.0 mm 0.18 in4.6 mm
11:45 AM 46.1°F7.8°C 44.2°F6.8°C 93% 9.0 mph SE14.5 kmh SE 26.0 mph41.8 kmh 29.60 in1002.4 mb 0.03 in0.8 mm 0.00 in0.0 mm 0.18 in4.6 mm
11:50 AM 46.1°F7.8°C 44.2°F6.8°C 93% 11.0 mph SE17.7 kmh SE 26.0 mph41.8 kmh 29.61 in1002.7 mb 0.04 in1.0 mm 0.12 in3.0 mm 0.19 in4.8 mm
12:05 PM 46.1°F7.8°C 44.5°F6.9°C 94% 14.0 mph SE22.5 kmh SE 23.0 mph37.0 kmh 29.57 in1001.4 mb 0.04 in1.0 mm 0.00 in0.0 mm 0.19 in4.8 mm
12:10 PM 46.1°F7.8°C 44.5°F6.9°C 94% 15.0 mph SSE24.1 kmh SSE 15.0 mph24.1 kmh 29.57 in1001.4 mb 0.04 in1.0 mm 0.00 in0.0 mm 0.19 in4.8 mm
12:25 PM 46.2°F7.9°C 44.6°F7.0°C 94% 10.0 mph S16.1 kmh S 21.0 mph33.8 kmh 29.56 in1001.0 mb 0.06 in1.5 mm 0.08 in2.0 mm 0.21 in5.3 mm
12:30 PM 46.2°F7.9°C 44.9°F7.2°C 95% 9.0 mph SE14.5 kmh SE 24.0 mph38.6 kmh 29.56 in1001.0 mb 0.07 in1.8 mm 0.12 in3.0 mm 0.22 in5.6 mm
12:45 PM 46.2°F7.9°C 44.9°F7.2°C 95% 5.0 mph SSE8.0 kmh SSE 20.0 mph32.2 kmh 29.56 in1001.0 mb 0.09 in2.3 mm 0.08 in2.0 mm 0.24 in6.1 mm
12:50 PM 46.2°F7.9°C 44.9°F7.2°C 95% 12.0 mph S19.3 kmh S 20.0 mph32.2 kmh 29.55 in1000.7 mb 0.10 in2.5 mm 0.12 in3.0 mm 0.25 in6.4 mm
01:05 PM 46.2°F7.9°C 44.9°F7.2°C 95% 4.0 mph SSW6.4 kmh SSW 20.0 mph32.2 kmh 29.55 in1000.7 mb 0.12 in3.0 mm 0.03 in0.8 mm 0.27 in6.9 mm
01:10 PM 46.2°F7.9°C 44.9°F7.2°C 95% 14.0 mph S22.5 kmh S 21.0 mph33.8 kmh 29.54 in1000.3 mb 0.13 in3.3 mm 0.12 in3.0 mm 0.28 in7.1 mm
01:25 PM 46.3°F7.9°C 45.0°F7.2°C 95% 8.0 mph SSW12.9 kmh SSW 19.0 mph30.6 kmh 29.54 in1000.3 mb 0.12 in3.0 mm 0.00 in0.0 mm 0.28 in7.1 mm
01:30 PM 46.3°F7.9°C 45.0°F7.2°C 95% 5.0 mph S8.0 kmh S 19.0 mph30.6 kmh 29.54 in1000.3 mb 0.13 in3.3 mm 0.12 in3.0 mm 0.29 in7.4 mm
01:44 PM 46.5°F8.1°C 45.2°F7.3°C 95% 9.0 mph S14.5 kmh S 20.0 mph32.2 kmh 29.54 in1000.3 mb 0.09 in2.3 mm 0.00 in0.0 mm 0.29 in7.4 mm
01:50 PM 46.6°F8.1°C 45.3°F7.4°C 95% 7.0 mph S11.3 kmh S 23.0 mph37.0 kmh 29.53 in1000.0 mb 0.09 in2.3 mm 0.00 in0.0 mm 0.29 in7.4 mm
02:05 PM 46.8°F8.2°C 45.5°F7.5°C 95% 14.0 mph SE22.5 kmh SE 19.0 mph30.6 kmh 29.52 in999.7 mb 0.04 in1.0 mm 0.00 in0.0 mm 0.29 in7.4 mm
02:09 PM 46.8°F8.2°C 45.5°F7.5°C 95% 9.0 mph S14.5 kmh S 21.0 mph33.8 kmh 29.52 in999.7 mb 0.04 in1.0 mm 0.00 in0.0 mm 0.29 in7.4 mm
02:24 PM 47.2°F8.4°C 45.8°F7.7°C 95% 12.0 mph SSE19.3 kmh SSE 21.0 mph33.8 kmh 29.52 in999.7 mb 0.02 in0.5 mm 0.00 in0.0 mm 0.29 in7.4 mm
02:29 PM 47.3°F8.5°C 45.7°F7.6°C 94% 3.0 mph SSW4.8 kmh SSW 21.0 mph33.8 kmh 29.52 in999.7 mb 0.02 in0.5 mm 0.00 in0.0 mm 0.29 in7.4 mm
02:45 PM 47.5°F8.6°C 45.9°F7.7°C 94% 6.0 mph S9.7 kmh S 14.0 mph22.5 kmh 29.52 in999.7 mb 0.00 in0.0 mm 0.00 in0.0 mm 0.29 in7.4 mm
02:50 PM 47.6°F8.7°C 46.0°F7.8°C 94% 12.0 mph SE19.3 kmh SE 18.0 mph29.0 kmh 29.51 in999.3 mb 0.00 in0.0 mm 0.00 in0.0 mm 0.29 in7.4 mm
03:05 PM 47.9°F8.8°C 46.0°F7.8°C 93% 13.0 mph S20.9 kmh S 17.0 mph27.4 kmh 29.52 in999.7 mb 0.00 in0.0 mm 0.00 in0.0 mm 0.29 in7.4 mm
03:10 PM 48.5°F9.2°C 46.6°F8.1°C 93% 9.0 mph SW14.5 kmh SW 17.0 mph27.4 kmh 29.52 in999.7 mb 0.00 in0.0 mm 0.00 in0.0 mm 0.29 in7.4 mm
03:25 PM 49.1°F9.5°C 46.9°F8.3°C 92% 2.0 mph S3.2 kmh S 12.0 mph19.3 kmh 29.53 in1000.0 mb 0.00 in0.0 mm 0.00 in0.0 mm 0.29 in7.4 mm
03:30 PM 49.2°F9.6°C 47.0°F8.3°C 92% 5.0 mph S8.0 kmh S 12.0 mph19.3 kmh 29.54 in1000.3 mb 0.00 in0.0 mm 0.00 in0.0 mm 0.29 in7.4 mm
03:45 PM 49.1°F9.5°C 46.3°F7.9°C 90% 9.0 mph S14.5 kmh S 14.0 mph22.5 kmh 29.54 in1000.3 mb 0.00 in0.0 mm 0.00 in0.0 mm 0.29 in7.4 mm
03:50 PM 49.2°F9.6°C 45.2°F7.3°C 86% 12.0 mph SSW19.3 kmh SSW 18.0 mph29.0 kmh 29.54 in1000.3 mb 0.00 in0.0 mm 0.00 in0.0 mm 0.29 in7.4 mm
04:05 PM 49.7°F9.8°C 45.1°F7.3°C 84% 13.0 mph SSW20.9 kmh SSW 14.0 mph22.5 kmh 29.54 in1000.3 mb 0.00 in0.0 mm 0.00 in0.0 mm 0.29 in7.4 mm
04:10 PM 49.6°F9.8°C 44.7°F7.1°C 83% 8.0 mph S12.9 kmh S 15.0 mph24.1 kmh 29.55 in1000.7 mb 0.00 in0.0 mm 0.00 in0.0 mm 0.29 in7.4 mm
04:25 PM 49.5°F9.7°C 43.9°F6.6°C 81% 10.0 mph SW16.1 kmh SW 13.0 mph20.9 kmh 29.54 in1000.3 mb 0.00 in0.0 mm 0.00 in0.0 mm 0.29 in7.4 mm
04:30 PM 49.3°F9.6°C 44.4°F6.9°C 83% 5.0 mph SSW8.0 kmh SSW 13.0 mph20.9 kmh 29.55 in1000.7 mb 0.00 in0.0 mm 0.00 in0.0 mm 0.29 in7.4 mm
04:45 PM 48.5°F9.2°C 44.5°F6.9°C 86% 7.0 mph S11.3 kmh S 11.0 mph17.7 kmh 29.56 in1001.0 mb 0.00 in0.0 mm 0.00 in0.0 mm 0.29 in7.4 mm
04:50 PM 48.3°F9.1°C 44.3°F6.8°C 86% 9.0 mph SSW14.5 kmh SSW 16.0 mph25.7 kmh 29.57 in1001.4 mb 0.00 in0.0 mm 0.00 in0.0 mm 0.29 in7.4 mm
05:05 PM 48.1°F8.9°C 44.1°F6.7°C 86% 8.0 mph SE12.9 kmh SE 14.0 mph22.5 kmh 29.57 in1001.4 mb 0.00 in0.0 mm 0.00 in0.0 mm 0.29 in7.4 mm
05:10 PM 48.0°F8.9°C 44.3°F6.8°C 87% 8.0 mph SSE12.9 kmh SSE 10.0 mph16.1 kmh 29.58 in1001.7 mb 0.00 in0.0 mm 0.00 in0.0 mm 0.29 in7.4 mm
05:25 PM 47.9°F8.8°C 44.2°F6.8°C 87% 7.0 mph SW11.3 kmh SW 11.0 mph17.7 kmh 29.57 in1001.4 mb 0.00 in0.0 mm 0.00 in0.0 mm 0.29 in7.4 mm
05:29 PM 47.9°F8.8°C 44.2°F6.8°C 87% 9.0 mph SSW14.5 kmh SSW 13.0 mph20.9 kmh 29.57 in1001.4 mb 0.00 in0.0 mm 0.00 in0.0 mm 0.29 in7.4 mm
05:45 PM 47.8°F8.8°C 44.4°F6.9°C 88% 7.0 mph SW11.3 kmh SW 9.0 mph14.5 kmh 29.57 in1001.4 mb 0.00 in0.0 mm 0.00 in0.0 mm 0.29 in7.4 mm
05:50 PM 47.8°F8.8°C 44.4°F6.9°C 88% 5.0 mph SW8.0 kmh SW 11.0 mph17.7 kmh 29.57 in1001.4 mb 0.00 in0.0 mm 0.00 in0.0 mm 0.29 in7.4 mm
06:05 PM 47.7°F8.7°C 44.6°F7.0°C 89% 7.0 mph S11.3 kmh S 13.0 mph20.9 kmh 29.58 in1001.7 mb 0.00 in0.0 mm 0.00 in0.0 mm 0.29 in7.4 mm
06:10 PM 47.7°F8.7°C 44.6°F7.0°C 89% 6.0 mph SW9.7 kmh SW 13.0 mph20.9 kmh 29.58 in1001.7 mb 0.00 in0.0 mm 0.00 in0.0 mm 0.29 in7.4 mm
06:25 PM 47.4°F8.6°C 43.7°F6.5°C 87% 11.0 mph SSW17.7 kmh SSW 15.0 mph24.1 kmh 29.58 in1001.7 mb 0.00 in0.0 mm 0.00 in0.0 mm 0.29 in7.4 mm
06:30 PM 47.6°F8.7°C 43.0°F6.1°C 84% 16.0 mph SW25.7 kmh SW 17.0 mph27.4 kmh 29.58 in1001.7 mb 0.00 in0.0 mm 0.00 in0.0 mm 0.29 in7.4 mm
06:45 PM 48.1°F8.9°C 42.9°F6.1°C 82% 7.0 mph SSW11.3 kmh SSW 14.0 mph22.5 kmh 29.58 in1001.7 mb 0.00 in0.0 mm 0.00 in0.0 mm 0.29 in7.4 mm
06:50 PM 48.0°F8.9°C 42.8°F6.0°C 82% 10.0 mph SSW16.1 kmh SSW 15.0 mph24.1 kmh 29.58 in1001.7 mb 0.00 in0.0 mm 0.00 in0.0 mm 0.29 in7.4 mm
07:05 PM 47.8°F8.8°C 42.9°F6.1°C 83% 7.0 mph SSW11.3 kmh SSW 10.0 mph16.1 kmh 29.59 in1002.0 mb 0.00 in0.0 mm 0.00 in0.0 mm 0.29 in7.4 mm
07:09 PM 47.7°F8.7°C 42.8°F6.0°C 83% 12.0 mph SW19.3 kmh SW 12.0 mph19.3 kmh 29.60 in1002.4 mb 0.00 in0.0 mm 0.00 in0.0 mm 0.29 in7.4 mm
07:25 PM 47.9°F8.8°C 43.0°F6.1°C 83% 7.0 mph SW11.3 kmh SW 14.0 mph22.5 kmh 29.61 in1002.7 mb 0.00 in0.0 mm 0.00 in0.0 mm 0.29 in7.4 mm
07:29 PM 47.9°F8.8°C 43.0°F6.1°C 83% 8.0 mph SW12.9 kmh SW 15.0 mph24.1 kmh 29.61 in1002.7 mb 0.00 in0.0 mm 0.00 in0.0 mm 0.29 in7.4 mm
07:45 PM 47.1°F8.4°C 42.5°F5.8°C 84% 4.0 mph NW6.4 kmh NW 11.0 mph17.7 kmh 29.63 in1003.4 mb 0.03 in0.8 mm 0.11 in2.8 mm 0.32 in8.1 mm
07:50 PM 46.4°F8.0°C 42.5°F5.8°C 86% 3.0 mph NW4.8 kmh NW 3.0 mph4.8 kmh 29.63 in1003.4 mb 0.03 in0.8 mm 0.00 in0.0 mm 0.32 in8.1 mm
08:05 PM 45.6°F7.6°C 42.8°F6.0°C 90% 6.0 mph SW9.7 kmh SW 13.0 mph20.9 kmh 29.64 in1003.7 mb 0.03 in0.8 mm 0.00 in0.0 mm 0.32 in8.1 mm
08:10 PM 45.6°F7.6°C 42.8°F6.0°C 90% 5.0 mph SW8.0 kmh SW 5.0 mph8.0 kmh 29.64 in1003.7 mb 0.03 in0.8 mm 0.00 in0.0 mm 0.32 in8.1 mm
08:25 PM 45.6°F7.6°C 42.8°F6.0°C 90% 5.0 mph WNW8.0 kmh WNW 11.0 mph17.7 kmh 29.65 in1004.1 mb 0.03 in0.8 mm 0.00 in0.0 mm 0.32 in8.1 mm
08:29 PM 45.4°F7.4°C 42.6°F5.9°C 90% 4.0 mph WSW6.4 kmh WSW 11.0 mph17.7 kmh 29.65 in1004.1 mb 0.03 in0.8 mm 0.00 in0.0 mm 0.32 in8.1 mm
08:44 PM 45.1°F7.3°C 42.4°F5.8°C 90% 4.0 mph W6.4 kmh W 11.0 mph17.7 kmh 29.66 in1004.4 mb 0.02 in0.5 mm 0.00 in0.0 mm 0.32 in8.1 mm
08:50 PM 45.0°F7.2°C 42.3°F5.7°C 90% 7.0 mph WSW11.3 kmh WSW 11.0 mph17.7 kmh 29.67 in1004.7 mb 0.02 in0.5 mm 0.00 in0.0 mm 0.32 in8.1 mm
09:05 PM 45.1°F7.3°C 42.6°F5.9°C 91% 7.0 mph W11.3 kmh W 11.0 mph17.7 kmh 29.68 in1005.1 mb 0.01 in0.3 mm 0.00 in0.0 mm 0.32 in8.1 mm
09:09 PM 45.2°F7.3°C 42.7°F5.9°C 91% 6.0 mph WSW9.7 kmh WSW 11.0 mph17.7 kmh 29.68 in1005.1 mb 0.01 in0.3 mm 0.00 in0.0 mm 0.32 in8.1 mm
09:25 PM 45.3°F7.4°C 42.8°F6.0°C 91% 6.0 mph SW9.7 kmh SW 10.0 mph16.1 kmh 29.70 in1005.8 mb 0.01 in0.3 mm 0.00 in0.0 mm 0.32 in8.1 mm
09:30 PM 45.4°F7.4°C 42.6°F5.9°C 90% 4.0 mph SW6.4 kmh SW 11.0 mph17.7 kmh 29.70 in1005.8 mb 0.01 in0.3 mm 0.00 in0.0 mm 0.32 in8.1 mm
09:45 PM 45.6°F7.6°C 42.8°F6.0°C 90% 9.0 mph WSW14.5 kmh WSW 12.0 mph19.3 kmh 29.72 in1006.4 mb 0.00 in0.0 mm 0.00 in0.0 mm 0.32 in8.1 mm
09:50 PM 45.6°F7.6°C 42.8°F6.0°C 90% 6.0 mph SW9.7 kmh SW 12.0 mph19.3 kmh 29.72 in1006.4 mb 0.00 in0.0 mm 0.00 in0.0 mm 0.32 in8.1 mm
10:05 PM 45.7°F7.6°C 42.9°F6.1°C 90% 9.0 mph SW14.5 kmh SW 12.0 mph19.3 kmh 29.74 in1007.1 mb 0.00 in0.0 mm 0.00 in0.0 mm 0.32 in8.1 mm
10:10 PM 45.7°F7.6°C 42.9°F6.1°C 90% 9.0 mph WSW14.5 kmh WSW 9.0 mph14.5 kmh 29.74 in1007.1 mb 0.00 in0.0 mm 0.00 in0.0 mm 0.32 in8.1 mm
10:25 PM 45.7°F7.6°C 42.7°F5.9°C 89% 6.0 mph WSW9.7 kmh WSW 11.0 mph17.7 kmh 29.76 in1007.8 mb 0.00 in0.0 mm 0.00 in0.0 mm 0.32 in8.1 mm
10:30 PM 45.7°F7.6°C 42.7°F5.9°C 89% 6.0 mph SW9.7 kmh SW 12.0 mph19.3 kmh 29.76 in1007.8 mb 0.00 in0.0 mm 0.00 in0.0 mm 0.32 in8.1 mm
10:45 PM 45.7°F7.6°C 42.4°F5.8°C 88% 8.0 mph WSW12.9 kmh WSW 11.0 mph17.7 kmh 29.76 in1007.8 mb 0.00 in0.0 mm 0.00 in0.0 mm 0.32 in8.1 mm
10:50 PM 45.7°F7.6°C 42.1°F5.6°C 87% 9.0 mph WSW14.5 kmh WSW 14.0 mph22.5 kmh 29.77 in1008.1 mb 0.00 in0.0 mm 0.00 in0.0 mm 0.32 in8.1 mm
11:04 PM 45.9°F7.7°C 42.6°F5.9°C 88% 8.0 mph SW12.9 kmh SW 13.0 mph20.9 kmh 29.78 in1008.5 mb 0.00 in0.0 mm 0.00 in0.0 mm 0.32 in8.1 mm
11:10 PM 45.8°F7.7°C 42.5°F5.8°C 88% 8.0 mph SW12.9 kmh SW 9.0 mph14.5 kmh 29.78 in1008.5 mb 0.00 in0.0 mm 0.00 in0.0 mm 0.32 in8.1 mm
11:25 PM 45.6°F7.6°C 42.3°F5.7°C 88% 4.0 mph SW6.4 kmh SW 9.0 mph14.5 kmh 29.79 in1008.8 mb 0.00 in0.0 mm 0.00 in0.0 mm 0.32 in8.1 mm
11:29 PM 45.5°F7.5°C 42.2°F5.7°C 88% 5.0 mph SSW8.0 kmh SSW 10.0 mph16.1 kmh 29.80 in1009.1 mb 0.00 in0.0 mm 0.00 in0.0 mm 0.32 in8.1 mm
11:45 PM 45.2°F7.3°C 42.2°F5.7°C 89% 4.0 mph SSW6.4 kmh SSW 8.0 mph12.9 kmh 29.81 in1009.5 mb 0.00 in0.0 mm 0.00 in0.0 mm 0.32 in8.1 mm
11:49 PM 45.0°F7.2°C 42.0°F5.6°C 89% 5.0 mph SW8.0 kmh SW 9.0 mph14.5 kmh 29.81 in1009.5 mb 0.00 in0.0 mm 0.00 in0.0 mm 0.32 in8.1 mm